Time;durP1;ratioP1;P1;durP2;ratioP2;P2;SDS_P1;SDS_P2;PMS_P1;PMS_P2;Temp;Humidity;BMP_temperature;BMP_pressure;BME280_temperature;BME280_humidity;BME280_pressure;Samples;Min_cycle;Max_cycle;Signal;HPM_P1;HPM_P2
2021/07/21 00:01:15;;;;;;;10.30;8.18;;;;;;;23.23;64.89;100869.19;5119231;27;20121;-70
2021/07/21 00:04:01;;;;;;;11.80;8.98;;;;;;;23.14;66.04;100877.91;5104959;27;20039;-70
2021/07/21 00:06:47;;;;;;;10.48;8.13;;;;;;;23.13;65.32;100872.63;5108494;27;20039;-70
2021/07/21 00:09:32;;;;;;;15.25;9.00;;;;;;;23.10;65.60;100884.72;5116020;27;20038;-70
2021/07/21 00:15:24;;;;;;;11.15;8.35;;;;;;;23.04;65.62;100880.50;5118778;27;20031;-70
2021/07/21 00:18:25;;;;;;;11.27;9.10;;;;;;;22.95;66.36;100877.84;5088997;27;20039;-70
2021/07/21 00:21:12;;;;;;;10.13;7.78;;;;;;;22.92;66.36;100879.41;5100674;27;20035;-70
2021/07/21 00:23:58;;;;;;;11.35;8.25;;;;;;;22.90;65.71;100881.81;5120836;27;20504;-70
2021/07/21 00:26:43;;;;;;;10.90;8.32;;;;;;;22.89;65.32;100874.50;5091289;28;20039;-70
2021/07/21 00:29:30;;;;;;;11.50;8.30;;;;;;;22.87;65.43;100882.56;5115670;27;20039;-70
2021/07/21 00:32:16;;;;;;;11.70;8.13;;;;;;;22.79;65.85;100875.09;5111147;28;20043;-71
2021/07/21 00:35:06;;;;;;;9.10;7.80;;;;;;;22.79;65.90;100883.56;5095193;27;20199;-70
2021/07/21 00:37:52;;;;;;;10.07;7.45;;;;;;;22.78;65.85;100884.75;5102304;27;20192;-70
2021/07/21 00:40:38;;;;;;;12.82;8.50;;;;;;;22.75;65.86;100872.16;5117776;27;20063;-70
2021/07/21 00:43:27;;;;;;;9.63;7.63;;;;;;;22.75;65.54;100882.66;5104018;27;20118;-70
2021/07/21 00:46:13;;;;;;;9.55;7.55;;;;;;;22.71;65.43;100884.59;5098037;27;20106;-70
2021/07/21 00:48:59;;;;;;;13.25;8.23;;;;;;;22.69;65.24;100887.78;5095560;27;20436;-70
2021/07/21 00:51:45;;;;;;;9.18;7.57;;;;;;;22.66;65.23;100890.53;5089691;28;20469;-70
2021/07/21 00:54:32;;;;;;;9.35;7.40;;;;;;;22.64;65.34;100890.06;5112556;27;20391;-70
2021/07/21 00:57:18;;;;;;;9.27;7.65;;;;;;;22.61;65.23;100891.63;5082835;28;20024;-70
2021/07/21 01:00:05;;;;;;;8.70;7.28;;;;;;;22.57;65.01;100890.72;5081820;28;20042;-70
2021/07/21 01:02:51;;;;;;;10.18;7.28;;;;;;;22.56;65.03;100888.25;5084769;28;20038;-70
2021/07/21 01:05:41;;;;;;;9.75;7.70;;;;;;;22.54;65.19;100874.47;5078872;28;20066;-70
2021/07/21 01:08:27;;;;;;;10.07;7.65;;;;;;;22.51;65.13;100870.38;5094077;28;20051;-70
2021/07/21 01:11:32;;;;;;;9.43;7.95;;;;;;;22.48;65.21;100871.13;5079016;28;20066;-70
2021/07/21 01:14:22;;;;;;;11.02;7.85;;;;;;;22.46;65.15;100878.31;5093262;28;20119;-70
2021/07/21 01:17:15;;;;;;;9.02;7.32;;;;;;;22.41;65.38;100873.75;5065262;28;20036;-70
2021/07/21 01:20:22;;;;;;;10.63;7.33;;;;;;;22.39;65.29;100878.94;5059034;28;20092;-70
2021/07/21 01:23:27;;;;;;;10.23;7.55;;;;;;;22.38;65.25;100887.81;5092267;28;20035;-70
2021/07/21 01:26:27;;;;;;;8.18;7.10;;;;;;;22.33;65.46;100886.06;5111087;28;20042;-71
2021/07/21 01:29:12;;;;;;;8.88;7.97;;;;;;;22.29;65.60;100894.47;5078343;28;20027;-70
2021/07/21 01:31:58;;;;;;;12.60;7.70;;;;;;;22.26;65.59;100878.22;5063296;28;20036;-70
2021/07/21 01:34:44;;;;;;;11.02;8.07;;;;;;;22.25;65.59;100887.06;5084693;28;20042;-71
2021/07/21 01:37:30;;;;;;;11.30;8.68;;;;;;;22.21;65.62;100886.16;5095445;28;20067;-70
2021/07/21 01:40:19;;;;;;;9.45;7.35;;;;;;;22.17;65.75;100883.19;5067941;28;20036;-70
2021/07/21 01:43:06;;;;;;;10.10;7.85;;;;;;;22.13;65.81;100887.94;5081162;28;20031;-70
2021/07/21 01:45:52;;;;;;;8.75;6.85;;;;;;;22.11;65.82;100883.84;5081941;28;20027;-70
2021/07/21 01:48:40;;;;;;;9.00;6.97;;;;;;;22.06;65.96;100882.94;5084277;28;20523;-70
2021/07/21 01:51:26;;;;;;;9.30;7.47;;;;;;;22.05;66.08;100881.28;5098400;28;20051;-71
2021/07/21 01:54:12;;;;;;;9.93;7.47;;;;;;;22.03;66.61;100880.81;5082019;28;20039;-70
2021/07/21 01:56:58;;;;;;;9.75;7.47;;;;;;;21.98;66.29;100875.44;5067565;28;20432;-71
2021/07/21 01:59:45;;;;;;;9.25;7.32;;;;;;;21.95;66.24;100887.47;5093488;28;20557;-70
2021/07/21 02:02:31;;;;;;;10.63;7.55;;;;;;;21.92;66.50;100874.06;5063469;28;20063;-70
2021/07/21 02:05:17;;;;;;;8.70;7.30;;;;;;;21.88;66.56;100875.97;5076691;28;20031;-70
2021/07/21 02:08:04;;;;;;;13.52;8.18;;;;;;;21.84;66.50;100890.03;5068091;28;20038;-70
2021/07/21 02:10:49;;;;;;;9.80;7.40;;;;;;;21.80;66.62;100879.78;5069621;28;20036;-69
2021/07/21 02:13:35;;;;;;;9.02;7.28;;;;;;;21.77;66.65;100881.31;5076557;28;20032;-70
2021/07/21 02:16:21;;;;;;;9.35;7.38;;;;;;;21.73;66.93;100880.41;5095288;28;20040;-71
2021/07/21 02:19:07;;;;;;;9.45;6.80;;;;;;;21.71;66.75;100882.78;5075971;28;20038;-70
2021/07/21 02:21:53;;;;;;;8.57;7.30;;;;;;;21.67;67.05;100876.19;5068834;28;20027;-70
2021/07/21 02:24:39;;;;;;;8.57;7.45;;;;;;;21.66;67.28;100887.88;5068875;28;20740;-70
2021/07/21 02:27:25;;;;;;;9.45;7.93;;;;;;;21.62;67.25;100882.13;5082365;28;20028;-70
2021/07/21 02:30:13;;;;;;;11.38;7.53;;;;;;;21.60;66.84;100878.81;5097066;28;20046;-70
2021/07/21 02:33:20;;;;;;;9.75;7.40;;;;;;;21.57;67.45;100876.72;5082593;28;20040;-70
2021/07/21 02:36:06;;;;;;;10.15;6.75;;;;;;;21.56;67.24;100878.72;5084714;28;20047;-70
2021/07/21 02:38:52;;;;;;;9.60;7.28;;;;;;;21.52;67.46;100880.63;5081850;28;20039;-70
2021/07/21 02:41:38;;;;;;;9.80;6.82;;;;;;;21.49;67.68;100875.69;5066958;28;20116;-70
2021/07/21 02:44:24;;;;;;;9.43;7.38;;;;;;;21.47;67.58;100880.88;5074160;28;20056;-70
2021/07/21 02:47:10;;;;;;;9.40;7.22;;;;;;;21.44;67.80;100877.94;5078372;28;20064;-70
2021/07/21 02:49:56;;;;;;;8.80;7.07;;;;;;;21.42;67.90;100886.78;5082921;28;20040;-71
2021/07/21 02:52:48;;;;;;;9.18;7.13;;;;;;;21.39;68.15;100882.66;5102959;27;20036;-70
2021/07/21 02:55:57;;;;;;;9.98;8.15;;;;;;;21.36;68.05;100888.19;5103582;27;20713;-70
2021/07/21 02:58:46;;;;;;;8.77;7.18;;;;;;;21.32;68.07;100887.25;5076700;28;20036;-70
2021/07/21 03:01:35;;;;;;;11.20;6.95;;;;;;;21.30;68.16;100881.13;5071426;28;20040;-70
2021/07/21 03:04:22;;;;;;;8.57;7.47;;;;;;;21.28;68.04;100881.50;5113792;28;20046;-70
2021/07/21 03:07:08;;;;;;;8.88;7.03;;;;;;;21.27;68.30;100890.34;5083446;28;20110;-70
2021/07/21 03:09:54;;;;;;;10.40;7.40;;;;;;;21.25;68.25;100892.69;5077101;28;20028;-70
2021/07/21 03:12:42;;;;;;;8.75;6.97;;;;;;;21.21;68.16;100892.59;5086589;27;20063;-70
2021/07/21 03:15:29;;;;;;;9.00;7.05;;;;;;;21.18;68.44;100891.28;5092403;27;20040;-70
2021/07/21 03:18:18;;;;;;;9.57;7.60;;;;;;;21.17;68.59;100892.50;5081583;28;20063;-70
2021/07/21 03:21:03;;;;;;;9.90;7.68;;;;;;;21.13;68.68;100888.72;5070194;28;20115;-70
2021/07/21 03:23:49;;;;;;;9.65;7.55;;;;;;;21.11;68.53;100888.25;5082012;28;20089;-71
2021/07/21 03:26:35;;;;;;;11.25;7.38;;;;;;;21.08;68.78;100894.59;5064950;28;20024;-71
2021/07/21 03:29:21;;;;;;;8.52;6.65;;;;;;;21.06;68.93;100890.50;5079810;28;20032;-71
2021/07/21 03:32:07;;;;;;;9.27;6.75;;;;;;;21.04;69.03;100899.34;5086665;28;20035;-71
2021/07/21 03:34:53;;;;;;;9.80;7.63;;;;;;;21.02;69.47;100901.69;5059826;28;20112;-71
2021/07/21 03:37:39;;;;;;;10.45;7.88;;;;;;;20.98;69.23;100901.59;5079700;28;20491;-71
2021/07/21 03:40:26;;;;;;;12.10;7.68;;;;;;;20.98;69.19;100900.75;5099141;28;20035;-71
2021/07/21 03:43:12;;;;;;;9.73;7.30;;;;;;;20.94;69.25;100894.16;5084806;28;20462;-70
2021/07/21 03:45:59;;;;;;;10.27;7.10;;;;;;;20.92;69.38;100908.66;5088031;28;20479;-71
2021/07/21 03:48:45;;;;;;;9.02;7.43;;;;;;;20.91;69.57;100909.00;5083336;28;20031;-71
2021/07/21 03:51:31;;;;;;;10.45;7.30;;;;;;;20.89;69.25;100905.69;5081399;28;20083;-71
2021/07/21 03:54:17;;;;;;;11.13;7.57;;;;;;;20.85;69.70;100907.59;5090637;28;20036;-70
2021/07/21 03:57:04;;;;;;;8.55;7.53;;;;;;;20.84;69.90;100908.75;5067986;28;20039;-70
2021/07/21 03:59:49;;;;;;;9.43;7.30;;;;;;;20.81;69.86;100915.09;5082970;28;20039;-70
2021/07/21 04:02:35;;;;;;;9.13;7.43;;;;;;;20.79;69.98;100915.47;5088552;28;20108;-70
2021/07/21 04:05:23;;;;;;;10.27;7.53;;;;;;;20.75;70.05;100904.09;5079155;28;20114;-71
2021/07/21 04:08:08;;;;;;;10.38;7.55;;;;;;;20.74;70.16;100913.72;5069261;28;20107;-70
2021/07/21 04:10:54;;;;;;;9.18;7.45;;;;;;;20.71;70.26;100913.59;5078846;27;20076;-70
2021/07/21 04:13:40;;;;;;;10.05;7.10;;;;;;;20.68;69.95;100917.94;5059572;28;20044;-70
2021/07/21 04:16:26;;;;;;;9.27;7.75;;;;;;;20.66;70.24;100920.28;5087086;28;20031;-71
2021/07/21 04:19:12;;;;;;;9.57;7.30;;;;;;;20.64;70.50;100919.81;5070580;28;20110;-70
2021/07/21 04:21:58;;;;;;;11.00;7.35;;;;;;;20.61;70.56;100920.53;5082210;28;20036;-71
2021/07/21 04:24:44;;;;;;;12.73;7.30;;;;;;;20.60;70.44;100915.25;5063476;28;20031;-71
2021/07/21 04:27:30;;;;;;;11.20;7.72;;;;;;;20.58;70.61;100921.22;5070006;28;20028;-71
2021/07/21 04:30:16;;;;;;;9.68;7.72;;;;;;;20.57;70.55;100916.78;5077011;28;20032;-70
2021/07/21 04:33:02;;;;;;;7.78;6.72;;;;;;;20.55;70.55;100919.13;5073071;28;20036;-71
2021/07/21 04:35:52;;;;;;;9.50;7.25;;;;;;;20.52;70.67;100923.44;5098789;28;20119;-71
2021/07/21 04:38:38;;;;;;;9.77;7.57;;;;;;;20.50;70.63;100920.16;5098156;28;20060;-71
2021/07/21 04:41:23;;;;;;;10.55;7.10;;;;;;;20.50;71.03;100919.31;5074657;28;20036;-71
2021/07/21 04:44:10;;;;;;;12.68;8.02;;;;;;;20.50;71.15;100922.13;5084214;28;20034;-71
2021/07/21 04:46:58;;;;;;;9.77;8.02;;;;;;;20.48;71.01;100921.69;5069004;28;20105;-71
2021/07/21 04:49:45;;;;;;;9.05;7.05;;;;;;;20.47;70.80;100934.94;5081244;28;20503;-71
2021/07/21 04:52:30;;;;;;;12.15;7.75;;;;;;;20.47;70.87;100936.94;5051743;28;20420;-71
2021/07/21 04:55:16;;;;;;;9.60;7.03;;;;;;;20.49;70.78;100934.59;5044469;28;20478;-71
2021/07/21 04:58:02;;;;;;;10.00;7.53;;;;;;;20.51;70.80;100938.72;5048287;28;20036;-71
2021/07/21 05:00:51;;;;;;;9.68;7.03;;;;;;;20.50;70.44;100939.06;5072991;28;20119;-71
2021/07/21 05:03:37;;;;;;;9.60;6.70;;;;;;;20.54;70.35;100942.88;5075712;28;20039;-71
2021/07/21 05:06:23;;;;;;;10.10;7.25;;;;;;;20.58;70.27;100937.34;5058215;28;20024;-71
2021/07/21 05:09:09;;;;;;;9.05;6.78;;;;;;;20.62;70.39;100943.94;5072095;28;20094;-71
2021/07/21 05:11:55;;;;;;;9.32;7.18;;;;;;;20.68;70.93;100945.34;5051360;28;20428;-71
2021/07/21 05:14:40;;;;;;;10.38;7.80;;;;;;;20.70;71.53;100941.00;5058766;28;20036;-70
2021/07/21 05:17:27;;;;;;;10.38;8.02;;;;;;;20.77;71.68;100956.53;5052409;28;20059;-69
2021/07/21 05:20:12;;;;;;;11.43;7.95;;;;;;;20.86;71.29;100954.41;5073127;28;20039;-71
2021/07/21 05:22:58;;;;;;;11.20;7.72;;;;;;;20.91;70.66;100960.63;5057844;28;20046;-69
2021/07/21 05:25:44;;;;;;;10.77;7.30;;;;;;;21.01;70.37;100961.34;5064776;28;20036;-69
2021/07/21 05:28:30;;;;;;;10.65;7.32;;;;;;;21.11;70.19;100958.84;5064999;28;20028;-69
2021/07/21 05:31:16;;;;;;;9.63;7.38;;;;;;;21.22;70.58;100956.34;5079227;28;20178;-70
2021/07/21 05:34:02;;;;;;;11.77;7.88;;;;;;;21.33;71.26;100962.34;5070737;28;20040;-69
2021/07/21 05:36:48;;;;;;;10.43;7.72;;;;;;;21.45;70.31;100962.34;5061625;28;20042;-70
2021/07/21 05:39:33;;;;;;;8.30;7.00;;;;;;;21.58;69.93;100963.13;5074141;28;20035;-69
2021/07/21 05:42:19;;;;;;;9.43;7.57;;;;;;;21.70;69.54;100970.75;5089083;28;20032;-70
2021/07/21 05:45:05;;;;;;;11.02;7.82;;;;;;;21.84;69.65;100974.00;5060384;28;20039;-69
2021/07/21 05:47:51;;;;;;;10.70;7.30;;;;;;;21.99;69.57;100973.22;5056460;28;20479;-70
2021/07/21 05:50:37;;;;;;;9.15;6.60;;;;;;;22.14;69.06;100979.28;5049837;28;20052;-69
2021/07/21 05:53:22;;;;;;;10.07;7.30;;;;;;;22.28;68.78;100974.03;5081197;28;20039;-69
2021/07/21 05:56:13;;;;;;;8.85;6.93;;;;;;;22.43;68.77;100980.94;5092580;28;20042;-70
2021/07/21 05:58:59;;;;;;;9.13;6.95;;;;;;;22.60;67.94;100991.06;5061597;28;20140;-70
2021/07/21 06:01:44;;;;;;;9.25;6.68;;;;;;;22.74;67.32;100983.75;5082585;28;20497;-70
2021/07/21 06:04:30;;;;;;;9.05;6.90;;;;;;;22.91;66.46;100985.41;5082979;28;20403;-71
2021/07/21 06:07:16;;;;;;;8.02;6.40;;;;;;;23.07;66.14;100993.09;5063453;28;20041;-71
2021/07/21 06:10:02;;;;;;;9.45;6.68;;;;;;;23.25;65.58;100993.50;5100645;28;20035;-71
2021/07/21 06:12:48;;;;;;;10.30;6.82;;;;;;;23.44;65.17;101001.25;5089378;28;20394;-71
2021/07/21 06:15:34;;;;;;;8.93;6.32;;;;;;;23.61;64.88;101012.16;5087761;28;20068;-71
2021/07/21 06:18:20;;;;;;;13.80;7.53;;;;;;;23.76;64.93;101011.28;5102225;27;20039;-70
2021/07/21 06:21:05;;;;;;;9.98;6.90;;;;;;;23.91;65.15;101015.28;5102714;27;20114;-71
2021/07/21 06:23:51;;;;;;;11.55;7.82;;;;;;;24.04;65.30;101030.13;5082402;28;20070;-70
2021/07/21 06:26:37;;;;;;;11.20;7.28;;;;;;;24.18;65.90;101021.94;5101556;28;20043;-70
2021/07/21 06:29:23;;;;;;;10.15;6.50;;;;;;;24.38;63.69;101022.72;5100408;28;20028;-71
2021/07/21 06:32:09;;;;;;;9.77;6.63;;;;;;;24.57;63.17;101024.69;5104617;27;20035;-75
2021/07/21 06:34:55;;;;;;;12.57;8.07;;;;;;;24.74;63.48;101027.06;5102957;27;20032;-70
2021/07/21 06:37:40;;;;;;;13.75;7.90;;;;;;;24.92;63.86;101032.22;5105004;27;20501;-70
2021/07/21 06:40:26;;;;;;;11.55;7.88;;;;;;;25.07;63.19;101039.78;5120871;27;20146;-69
2021/07/21 06:43:12;;;;;;;12.77;7.30;;;;;;;25.18;63.46;101023.78;5106237;27;20258;-69
2021/07/21 06:45:58;;;;;;;9.05;6.57;;;;;;;25.31;62.56;101037.78;5086482;28;20510;-69
2021/07/21 06:48:44;;;;;;;13.10;7.55;;;;;;;25.53;62.41;101044.59;5087281;28;20087;-69
2021/07/21 06:51:29;;;;;;;8.38;6.35;;;;;;;25.71;61.27;101033.47;5111240;28;20104;-70
2021/07/21 06:54:15;;;;;;;12.35;7.47;;;;;;;25.85;61.71;101045.94;5095901;28;20487;-69
2021/07/21 06:57:01;;;;;;;9.95;6.25;;;;;;;26.08;60.96;101042.16;5077509;28;20036;-70
2021/07/21 06:59:47;;;;;;;12.38;7.50;;;;;;;26.09;61.01;101040.94;5089127;27;20031;-74
2021/07/21 07:02:33;;;;;;;11.45;7.90;;;;;;;26.25;61.08;101049.25;5086437;28;20041;-72
2021/07/21 07:05:19;;;;;;;12.23;7.70;;;;;;;26.40;61.32;101050.25;5083615;28;20646;-75
2021/07/21 07:08:04;;;;;;;12.35;7.90;;;;;;;26.59;60.31;101049.25;5068834;28;20474;-69
2021/07/21 07:10:50;;;;;;;14.02;7.70;;;;;;;26.70;60.58;101048.16;5078790;28;20604;-69
2021/07/21 07:13:37;;;;;;;13.02;8.15;;;;;;;26.91;59.89;101052.41;5084872;28;20175;-69
2021/07/21 07:16:23;;;;;;;16.88;7.80;;;;;;;27.06;58.96;101054.19;5080447;28;20130;-69
2021/07/21 07:19:09;;;;;;;15.38;7.88;;;;;;;27.25;58.53;101049.50;5066484;28;20039;-69
2021/07/21 07:21:54;;;;;;;15.32;8.55;;;;;;;27.37;58.29;101058.53;5078396;28;20491;-69
2021/07/21 07:24:40;;;;;;;13.23;6.82;;;;;;;27.63;57.23;101057.47;5112392;27;20085;-69
2021/07/21 07:27:27;;;;;;;12.80;6.88;;;;;;;27.83;56.91;101066.63;5094325;28;20027;-69
2021/07/21 07:30:14;;;;;;;15.57;8.30;;;;;;;27.91;56.34;101055.22;5075497;28;20067;-69
2021/07/21 07:33:00;;;;;;;12.10;7.80;;;;;;;28.05;55.85;101058.16;5098673;28;20100;-69
2021/07/21 07:35:46;;;;;;;14.38;8.05;;;;;;;28.20;55.41;101050.47;5092633;28;20055;-69
2021/07/21 07:38:32;;;;;;;11.30;7.60;;;;;;;28.29;56.42;101048.06;5072921;28;20043;-69
2021/07/21 07:41:20;;;;;;;13.32;7.65;;;;;;;28.47;54.69;101057.53;5080867;28;20039;-69
2021/07/21 07:44:06;;;;;;;13.85;7.63;;;;;;;28.55;54.86;101060.41;5079395;28;20086;-70
2021/07/21 07:46:52;;;;;;;12.38;8.13;;;;;;;28.77;55.70;101059.22;5086153;28;20026;-69
2021/07/21 07:49:38;;;;;;;10.27;6.60;;;;;;;29.04;54.21;101051.09;5095993;28;20039;-69
2021/07/21 07:52:24;;;;;;;13.82;7.00;;;;;;;29.17;53.26;101054.38;5091119;28;20043;-69
2021/07/21 07:55:10;;;;;;;9.73;6.75;;;;;;;29.38;53.15;101047.81;5099303;28;20036;-69
2021/07/21 07:57:56;;;;;;;9.13;6.32;;;;;;;29.53;52.92;101049.44;5072967;27;20067;-69
2021/07/21 08:00:42;;;;;;;11.38;7.10;;;;;;;29.66;52.71;101049.03;5069690;28;20108;-69
2021/07/21 08:03:27;;;;;;;8.60;6.60;;;;;;;29.77;52.03;101052.69;5082123;28;20054;-69
2021/07/21 08:06:13;;;;;;;12.38;7.50;;;;;;;29.73;50.59;101052.69;5082848;28;20062;-69
2021/07/21 08:08:59;;;;;;;16.80;7.70;;;;;;;29.73;49.12;101046.16;5084900;28;20035;-69
2021/07/21 08:11:48;;;;;;;12.95;6.78;;;;;;;29.96;49.27;101051.41;5096963;28;20059;-69
2021/07/21 08:14:34;;;;;;;12.18;7.15;;;;;;;30.12;49.36;101046.00;5089149;28;20040;-70
2021/07/21 08:17:19;;;;;;;11.30;7.63;;;;;;;30.17;48.49;101047.59;5086788;28;20036;-69
2021/07/21 08:20:06;;;;;;;13.55;7.38;;;;;;;30.29;48.60;101047.19;5063822;28;20118;-68
2021/07/21 08:22:52;;;;;;;12.48;6.97;;;;;;;30.42;48.66;101045.50;5073195;28;20055;-69
2021/07/21 08:25:38;;;;;;;12.45;6.93;;;;;;;30.63;49.11;101041.66;5081949;28;20504;-69
2021/07/21 08:28:23;;;;;;;12.57;7.18;;;;;;;30.71;48.81;101042.44;5068862;28;20085;-68
2021/07/21 08:31:09;;;;;;;9.88;6.45;;;;;;;30.88;49.35;101038.66;5069356;28;20545;-69
2021/07/21 08:34:01;;;;;;;9.93;6.78;;;;;;;30.99;49.15;101032.03;5082834;28;20038;-69
2021/07/21 08:36:47;;;;;;;11.65;6.95;;;;;;;31.13;48.37;101034.75;5072540;28;20495;-68
2021/07/21 08:39:33;;;;;;;9.70;7.35;;;;;;;31.24;48.64;101026.88;5098655;28;20091;-69
2021/07/21 08:42:19;;;;;;;9.57;6.50;;;;;;;31.35;48.76;101024.72;5096499;28;20039;-69
2021/07/21 08:45:05;;;;;;;12.48;7.38;;;;;;;31.46;47.05;101023.81;5081141;28;20074;-69
2021/07/21 08:47:52;;;;;;;10.02;6.47;;;;;;;31.54;46.78;101019.66;5073823;28;20032;-68
2021/07/21 08:50:39;;;;;;;10.35;6.53;;;;;;;31.64;45.76;101023.63;5081077;28;20097;-68
2021/07/21 08:53:25;;;;;;;11.88;6.75;;;;;;;31.63;44.28;101022.81;5077243;28;20032;-68
2021/07/21 08:56:11;;;;;;;10.13;6.43;;;;;;;31.75;44.88;101019.38;5091126;28;20466;-68
2021/07/21 08:58:57;;;;;;;10.05;6.68;;;;;;;31.78;43.87;101024.25;5082695;28;20158;-69
2021/07/21 09:01:42;;;;;;;8.57;6.10;;;;;;;31.87;43.45;101020.88;5075779;28;20439;-69
2021/07/21 09:04:28;;;;;;;11.18;6.72;;;;;;;31.77;43.65;101019.78;5064777;28;20081;-69
2021/07/21 09:07:14;;;;;;;10.52;6.07;;;;;;;31.97;44.33;101013.41;5067314;28;20107;-69
2021/07/21 09:10:00;;;;;;;14.73;6.40;;;;;;;31.72;43.41;101008.75;5086363;28;20036;-68
2021/07/21 09:12:48;;;;;;;9.68;6.03;;;;;;;31.48;42.89;101009.84;5077570;28;20062;-69
2021/07/21 09:15:34;;;;;;;10.10;6.22;;;;;;;31.54;43.41;100996.69;5099127;28;20172;-69
2021/07/21 09:18:20;;;;;;;10.07;6.13;;;;;;;31.45;44.12;101004.97;5096759;28;20066;-69
2021/07/21 09:21:07;;;;;;;9.75;5.78;;;;;;;31.64;44.01;100994.91;5059354;28;20435;-68
2021/07/21 09:23:55;;;;;;;10.95;6.00;;;;;;;31.74;43.25;101000.53;5068704;28;20415;-69
2021/07/21 09:26:42;;;;;;;11.48;5.93;;;;;;;31.95;44.62;100998.66;5078902;28;20032;-69
2021/07/21 09:29:27;;;;;;;10.95;6.07;;;;;;;32.12;43.46;101008.28;5079883;28;20100;-69
2021/07/21 09:32:13;;;;;;;11.80;6.30;;;;;;;32.03;42.78;101009.63;5060863;28;20043;-68
2021/07/21 09:35:00;;;;;;;9.32;5.70;;;;;;;31.91;42.82;101015.09;5075899;28;20111;-69
2021/07/21 09:37:46;;;;;;;8.30;5.97;;;;;;;31.63;42.57;101010.53;5075278;28;20035;-68
2021/07/21 09:40:32;;;;;;;10.38;6.10;;;;;;;31.65;44.04;101014.59;5095020;28;20381;-68
2021/07/21 09:43:20;;;;;;;8.02;5.68;;;;;;;31.73;44.25;101016.16;5062066;28;20032;-70
2021/07/21 09:46:07;;;;;;;10.05;5.93;;;;;;;31.90;44.25;101020.03;5084220;28;20076;-70
2021/07/21 09:48:53;;;;;;;9.75;5.55;;;;;;;32.00;44.08;101021.97;5081803;28;20035;-70
2021/07/21 09:51:39;;;;;;;10.15;5.40;;;;;;;32.27;43.68;101019.16;5093775;28;20048;-70
2021/07/21 09:54:25;;;;;;;8.45;5.40;;;;;;;32.48;43.13;101008.63;5098949;28;20035;-69
2021/07/21 09:57:13;;;;;;;10.23;5.50;;;;;;;32.71;42.60;101011.56;5095387;28;20111;-68
2021/07/21 09:59:59;;;;;;;9.52;5.85;;;;;;;32.78;42.20;101021.31;5108508;28;20050;-69
2021/07/21 10:02:46;;;;;;;8.88;5.85;;;;;;;33.00;42.51;101016.88;5079147;28;20020;-68
2021/07/21 10:05:32;;;;;;;7.72;5.07;;;;;;;33.16;42.02;101010.44;5062782;28;20036;-68
2021/07/21 10:08:34;;;;;;;11.82;6.15;;;;;;;33.32;41.84;101009.72;5083601;28;20063;-68
2021/07/21 10:11:26;;;;;;;10.35;5.28;;;;;;;33.21;40.69;101020.59;5086134;28;20027;-69
2021/07/21 10:14:13;;;;;;;7.78;5.43;;;;;;;33.33;41.27;101017.13;5092279;28;20028;-69
2021/07/21 10:16:59;;;;;;;10.88;5.18;;;;;;;33.49;40.81;101016.38;5068262;28;20039;-69
2021/07/21 10:19:45;;;;;;;8.63;5.28;;;;;;;33.61;39.95;101015.78;5099633;28;20110;-69
2021/07/21 10:22:31;;;;;;;10.25;5.65;;;;;;;33.51;39.87;101029.09;5069527;28;20130;-69
2021/07/21 10:25:18;;;;;;;9.68;5.13;;;;;;;33.51;40.10;101023.34;5100298;28;20044;-69
2021/07/21 10:28:04;;;;;;;9.60;5.13;;;;;;;33.40;39.64;101021.91;5078406;28;20031;-69
2021/07/21 10:30:50;;;;;;;9.43;5.28;;;;;;;32.96;39.51;101030.47;5083717;28;20032;-68
2021/07/21 10:33:36;;;;;;;10.73;5.35;;;;;;;33.16;40.75;101033.47;5064629;28;20095;-69
2021/07/21 10:36:21;;;;;;;8.50;4.78;;;;;;;33.30;40.69;101018.00;5088496;28;20537;-69
2021/07/21 10:39:11;;;;;;;10.57;5.47;;;;;;;33.46;41.71;101020.97;5082404;28;20454;-69
2021/07/21 10:42:01;;;;;;;8.45;5.05;;;;;;;33.60;41.66;101025.69;5084308;28;20040;-69
2021/07/21 10:44:57;;;;;;;7.47;5.40;;;;;;;33.29;40.59;101022.94;5077485;28;20036;-68
2021/07/21 10:47:51;;;;;;;10.20;5.13;;;;;;;33.00;39.80;101028.38;5070657;28;20069;-68
2021/07/21 10:59:42;;;;;;;10.60;5.32;;;;;;;32.74;40.07;101032.06;5103987;28;20035;-69
2021/07/21 11:02:30;;;;;;;7.05;5.00;;;;;;;32.79;40.16;101022.94;5093828;28;20118;-69
2021/07/21 11:05:30;;;;;;;11.80;5.35;;;;;;;32.56;40.95;101024.53;5088825;28;20118;-68
2021/07/21 11:08:18;;;;;;;9.27;5.35;;;;;;;33.10;40.50;101013.00;5075330;28;20325;-68
2021/07/21 11:11:11;;;;;;;8.18;5.22;;;;;;;33.32;40.38;101016.31;5077368;28;20141;-68
2021/07/21 11:13:57;;;;;;;9.30;5.03;;;;;;;33.20;41.45;101019.00;5063829;28;20051;-68
2021/07/21 11:16:48;;;;;;;8.48;4.90;;;;;;;33.18;40.21;101022.28;5072605;28;20058;-68
2021/07/21 11:19:35;;;;;;;8.05;4.82;;;;;;;33.46;39.71;101015.22;5084861;28;20032;-69
2021/07/21 11:22:21;;;;;;;7.80;4.88;;;;;;;33.47;39.94;101011.09;5086971;27;20077;-68
2021/07/21 11:25:19;;;;;;;7.95;4.60;;;;;;;33.69;40.50;101016.47;5107254;28;20043;-68
2021/07/21 11:28:04;;;;;;;7.97;4.82;;;;;;;33.94;38.80;101010.19;5101594;28;20031;-68
2021/07/21 11:30:58;;;;;;;8.00;4.50;;;;;;;33.94;39.73;101002.34;5097198;28;20604;-68
2021/07/21 11:33:50;;;;;;;5.75;4.50;;;;;;;34.13;39.00;101009.38;5085670;28;20039;-68
2021/07/21 11:36:43;;;;;;;9.65;4.82;;;;;;;34.15;38.58;100995.31;5112154;28;20056;-68
2021/07/21 11:39:44;;;;;;;10.13;5.00;;;;;;;34.20;39.45;100988.22;5112817;28;20035;-69
2021/07/21 11:42:34;;;;;;;7.32;4.72;;;;;;;34.20;38.67;100999.75;5076569;28;20027;-68
2021/07/21 11:45:20;;;;;;;6.28;5.00;;;;;;;34.16;39.42;100996.16;5071752;28;20061;-68
2021/07/21 11:48:06;;;;;;;8.52;5.05;;;;;;;34.00;38.50;100996.88;5084600;28;20040;-68
2021/07/21 11:50:52;;;;;;;7.88;4.95;;;;;;;33.56;39.23;100988.31;5089008;28;20076;-68
2021/07/21 11:53:38;;;;;;;9.18;5.18;;;;;;;34.19;38.70;100983.75;5088036;27;20119;-68
2021/07/21 11:56:24;;;;;;;7.55;4.97;;;;;;;34.25;39.01;100990.59;5084008;28;20105;-69
2021/07/21 11:59:09;;;;;;;6.32;4.80;;;;;;;34.33;39.30;100992.06;5075987;28;20032;-69
2021/07/21 12:02:08;;;;;;;6.15;4.75;;;;;;;34.08;40.44;101001.25;5075121;28;20451;-69
2021/07/21 12:04:55;;;;;;;8.80;5.55;;;;;;;33.86;38.78;100991.44;5075923;28;20032;-68
2021/07/21 12:07:45;;;;;;;9.15;5.15;;;;;;;33.78;40.04;100996.53;5083785;28;20520;-68
2021/07/21 12:10:34;;;;;;;8.50;5.32;;;;;;;34.12;39.97;100986.75;5080067;28;20036;-69
2021/07/21 12:13:20;;;;;;;8.60;5.28;;;;;;;33.99;40.04;100993.19;5079071;28;20046;-69
2021/07/21 12:16:06;;;;;;;10.07;5.15;;;;;;;34.23;38.98;101005.44;5084640;28;20176;-69
2021/07/21 12:19:03;;;;;;;9.77;5.03;;;;;;;34.44;38.61;100995.50;5069421;28;20032;-69
2021/07/21 12:21:49;;;;;;;7.95;5.40;;;;;;;34.31;38.67;100988.78;5097591;28;20035;-69
2021/07/21 12:24:36;;;;;;;7.05;5.00;;;;;;;34.06;39.51;100995.13;5066855;28;20050;-69
2021/07/21 12:27:23;;;;;;;8.70;4.90;;;;;;;34.08;38.58;100988.94;5096643;28;20027;-69
2021/07/21 12:30:10;;;;;;;8.48;5.20;;;;;;;34.35;38.29;100992.44;5072310;28;20031;-69
2021/07/21 12:32:56;;;;;;;6.60;4.47;;;;;;;34.36;38.63;100991.16;5067039;28;20039;-70
2021/07/21 12:35:41;;;;;;;10.43;5.35;;;;;;;33.96;38.09;100988.31;5099271;28;20037;-69
2021/07/21 12:38:27;;;;;;;9.63;5.30;;;;;;;33.71;37.92;100976.50;5084463;28;20070;-69
2021/07/21 12:41:13;;;;;;;9.25;4.88;;;;;;;33.78;38.06;100970.59;5086396;28;20543;-69
2021/07/21 12:43:59;;;;;;;7.75;4.68;;;;;;;33.91;40.15;100974.44;5097287;28;20503;-69
2021/07/21 12:46:45;;;;;;;5.57;4.60;;;;;;;33.52;38.75;100973.19;5068888;28;20694;-68
2021/07/21 12:49:31;;;;;;;7.30;4.90;;;;;;;33.72;39.69;100976.06;5064471;28;20046;-69
2021/07/21 12:52:34;;;;;;;6.75;4.90;;;;;;;33.73;38.08;100983.44;5082784;28;20061;-69
2021/07/21 12:55:39;;;;;;;8.88;5.10;;;;;;;33.81;37.95;100972.59;5085232;28;20040;-69
2021/07/21 12:58:25;;;;;;;9.10;5.10;;;;;;;33.65;37.42;100973.31;5085042;28;20050;-69
2021/07/21 13:01:11;;;;;;;10.32;5.35;;;;;;;33.77;37.95;100971.88;5067621;28;20043;-69
2021/07/21 13:03:57;;;;;;;6.78;4.57;;;;;;;34.01;38.65;100973.38;5084198;28;20095;-69
2021/07/21 13:06:43;;;;;;;8.88;4.80;;;;;;;34.12;38.21;100969.47;5071985;28;20032;-69